sensor_id;sensor_type;location;lat;lon;timestamp;temperature;humidity
3548;DHT22;1788;49.400;11.092;2022-07-05T00:00:43;23.70;36.60
3548;DHT22;1788;49.400;11.092;2022-07-05T00:03:10;23.70;36.70
3548;DHT22;1788;49.400;11.092;2022-07-05T00:05:37;23.60;36.70
3548;DHT22;1788;49.400;11.092;2022-07-05T00:08:04;23.60;36.70
3548;DHT22;1788;49.400;11.092;2022-07-05T00:10:32;23.60;36.80
3548;DHT22;1788;49.400;11.092;2022-07-05T00:12:58;23.50;36.70
3548;DHT22;1788;49.400;11.092;2022-07-05T00:15:25;23.50;36.80
3548;DHT22;1788;49.400;11.092;2022-07-05T00:17:52;23.50;36.80
3548;DHT22;1788;49.400;11.092;2022-07-05T00:20:19;23.50;36.80
3548;DHT22;1788;49.400;11.092;2022-07-05T00:22:45;23.40;36.80
3548;DHT22;1788;49.400;11.092;2022-07-05T00:25:12;23.40;36.90
3548;DHT22;1788;49.400;11.092;2022-07-05T00:27:39;23.30;37.20
3548;DHT22;1788;49.400;11.092;2022-07-05T00:32:32;23.30;37.40
3548;DHT22;1788;49.400;11.092;2022-07-05T00:34:59;23.30;37.60
3548;DHT22;1788;49.400;11.092;2022-07-05T00:37:26;23.20;37.60
3548;DHT22;1788;49.400;11.092;2022-07-05T00:39:53;23.20;37.60
3548;DHT22;1788;49.400;11.092;2022-07-05T00:42:20;23.10;38.10
3548;DHT22;1788;49.400;11.092;2022-07-05T00:44:47;23.00;38.00
3548;DHT22;1788;49.400;11.092;2022-07-05T00:47:13;23.00;38.20
3548;DHT22;1788;49.400;11.092;2022-07-05T00:49:41;23.00;38.30
3548;DHT22;1788;49.400;11.092;2022-07-05T00:52:07;22.90;38.30
3548;DHT22;1788;49.400;11.092;2022-07-05T00:54:34;22.80;38.50
3548;DHT22;1788;49.400;11.092;2022-07-05T00:57:00;22.80;38.60
3548;DHT22;1788;49.400;11.092;2022-07-05T00:59:27;22.80;38.70
3548;DHT22;1788;49.400;11.092;2022-07-05T01:01:53;22.70;38.60
3548;DHT22;1788;49.400;11.092;2022-07-05T01:04:21;22.60;38.70
3548;DHT22;1788;49.400;11.092;2022-07-05T01:06:48;22.60;38.70
3548;DHT22;1788;49.400;11.092;2022-07-05T01:09:15;22.60;38.70
3548;DHT22;1788;49.400;11.092;2022-07-05T01:11:41;22.60;38.80
3548;DHT22;1788;49.400;11.092;2022-07-05T01:14:07;22.50;38.90
3548;DHT22;1788;49.400;11.092;2022-07-05T01:16:34;22.50;39.00
3548;DHT22;1788;49.400;11.092;2022-07-05T01:19:01;22.50;39.20
3548;DHT22;1788;49.400;11.092;2022-07-05T01:21:27;22.40;39.30
3548;DHT22;1788;49.400;11.092;2022-07-05T01:23:54;22.40;39.50
3548;DHT22;1788;49.400;11.092;2022-07-05T01:26:21;22.40;39.60
3548;DHT22;1788;49.400;11.092;2022-07-05T01:28:47;22.30;39.60
3548;DHT22;1788;49.400;11.092;2022-07-05T01:31:14;22.30;39.60
3548;DHT22;1788;49.400;11.092;2022-07-05T01:33:40;22.20;39.70
3548;DHT22;1788;49.400;11.092;2022-07-05T01:36:08;22.20;40.20
3548;DHT22;1788;49.400;11.092;2022-07-05T01:38:34;22.10;40.10
3548;DHT22;1788;49.400;11.092;2022-07-05T01:41:01;22.10;40.20
3548;DHT22;1788;49.400;11.092;2022-07-05T01:43:28;22.10;40.30
3548;DHT22;1788;49.400;11.092;2022-07-05T01:45:54;22.10;40.50
3548;DHT22;1788;49.400;11.092;2022-07-05T01:48:22;22.00;40.70
3548;DHT22;1788;49.400;11.092;2022-07-05T01:50:50;21.90;40.60
3548;DHT22;1788;49.400;11.092;2022-07-05T01:55:42;21.90;40.90
3548;DHT22;1788;49.400;11.092;2022-07-05T01:58:10;21.80;40.90
3548;DHT22;1788;49.400;11.092;2022-07-05T02:03:04;21.80;41.20
3548;DHT22;1788;49.400;11.092;2022-07-05T02:05:31;21.60;41.40
3548;DHT22;1788;49.400;11.092;2022-07-05T02:07:58;21.60;41.40
3548;DHT22;1788;49.400;11.092;2022-07-05T02:10:25;21.50;41.40
3548;DHT22;1788;49.400;11.092;2022-07-05T02:12:52;21.50;41.60
3548;DHT22;1788;49.400;11.092;2022-07-05T02:15:19;21.50;41.70
3548;DHT22;1788;49.400;11.092;2022-07-05T02:17:46;21.50;41.90
3548;DHT22;1788;49.400;11.092;2022-07-05T02:20:12;21.40;42.00
3548;DHT22;1788;49.400;11.092;2022-07-05T02:22:39;21.30;42.00
3548;DHT22;1788;49.400;11.092;2022-07-05T02:25:06;21.30;42.00
3548;DHT22;1788;49.400;11.092;2022-07-05T02:27:32;21.30;42.20
3548;DHT22;1788;49.400;11.092;2022-07-05T02:29:59;21.30;42.30
3548;DHT22;1788;49.400;11.092;2022-07-05T02:32:25;21.20;42.30
3548;DHT22;1788;49.400;11.092;2022-07-05T02:34:52;21.20;42.30
3548;DHT22;1788;49.400;11.092;2022-07-05T02:37:19;21.10;42.50
3548;DHT22;1788;49.400;11.092;2022-07-05T02:39:47;21.10;42.40
3548;DHT22;1788;49.400;11.092;2022-07-05T02:42:13;21.10;42.50
3548;DHT22;1788;49.400;11.092;2022-07-05T02:44:41;21.00;43.20
3548;DHT22;1788;49.400;11.092;2022-07-05T02:47:08;21.00;42.60
3548;DHT22;1788;49.400;11.092;2022-07-05T02:49:35;21.00;42.70
3548;DHT22;1788;49.400;11.092;2022-07-05T02:52:02;20.90;42.90
3548;DHT22;1788;49.400;11.092;2022-07-05T02:54:29;20.90;42.80
3548;DHT22;1788;49.400;11.092;2022-07-05T02:56:56;20.80;43.10
3548;DHT22;1788;49.400;11.092;2022-07-05T02:59:23;20.80;43.00
3548;DHT22;1788;49.400;11.092;2022-07-05T03:01:49;20.80;43.20
3548;DHT22;1788;49.400;11.092;2022-07-05T03:04:16;20.70;43.30
3548;DHT22;1788;49.400;11.092;2022-07-05T03:06:42;20.60;43.50
3548;DHT22;1788;49.400;11.092;2022-07-05T03:09:10;20.50;44.40
3548;DHT22;1788;49.400;11.092;2022-07-05T03:11:36;20.50;43.80
3548;DHT22;1788;49.400;11.092;2022-07-05T03:14:04;20.30;44.20
3548;DHT22;1788;49.400;11.092;2022-07-05T03:16:30;20.30;44.10
3548;DHT22;1788;49.400;11.092;2022-07-05T03:18:58;20.20;44.80
3548;DHT22;1788;49.400;11.092;2022-07-05T03:21:25;20.20;44.50
3548;DHT22;1788;49.400;11.092;2022-07-05T03:23:52;20.10;44.60
3548;DHT22;1788;49.400;11.092;2022-07-05T03:26:19;20.00;44.60
3548;DHT22;1788;49.400;11.092;2022-07-05T03:28:46;19.90;44.90
3548;DHT22;1788;49.400;11.092;2022-07-05T03:31:13;19.90;44.90
3548;DHT22;1788;49.400;11.092;2022-07-05T03:33:40;19.80;45.20
3548;DHT22;1788;49.400;11.092;2022-07-05T03:36:07;19.80;45.20
3548;DHT22;1788;49.400;11.092;2022-07-05T03:38:34;19.80;45.30
3548;DHT22;1788;49.400;11.092;2022-07-05T03:41:02;19.70;45.40
3548;DHT22;1788;49.400;11.092;2022-07-05T03:43:28;19.60;45.40
3548;DHT22;1788;49.400;11.092;2022-07-05T03:45:55;19.60;45.50
3548;DHT22;1788;49.400;11.092;2022-07-05T03:48:22;19.50;45.60
3548;DHT22;1788;49.400;11.092;2022-07-05T03:50:49;19.50;45.60
3548;DHT22;1788;49.400;11.092;2022-07-05T03:53:15;19.50;45.70
3548;DHT22;1788;49.400;11.092;2022-07-05T03:55:42;19.40;45.80
3548;DHT22;1788;49.400;11.092;2022-07-05T03:58:08;19.30;46.40
3548;DHT22;1788;49.400;11.092;2022-07-05T04:00:35;19.30;45.90
3548;DHT22;1788;49.400;11.092;2022-07-05T04:03:02;19.30;46.10
3548;DHT22;1788;49.400;11.092;2022-07-05T04:05:28;19.20;46.10
3548;DHT22;1788;49.400;11.092;2022-07-05T04:07:55;19.20;46.30
3548;DHT22;1788;49.400;11.092;2022-07-05T04:10:22;19.10;46.50
3548;DHT22;1788;49.400;11.092;2022-07-05T04:12:49;19.00;46.40
3548;DHT22;1788;49.400;11.092;2022-07-05T04:15:16;19.00;47.10
3548;DHT22;1788;49.400;11.092;2022-07-05T04:20:09;19.00;46.80
3548;DHT22;1788;49.400;11.092;2022-07-05T04:22:37;19.00;47.00
3548;DHT22;1788;49.400;11.092;2022-07-05T04:25:04;19.00;47.30
3548;DHT22;1788;49.400;11.092;2022-07-05T04:27:31;18.90;47.10
3548;DHT22;1788;49.400;11.092;2022-07-05T04:29:57;18.90;47.30
3548;DHT22;1788;49.400;11.092;2022-07-05T04:32:26;18.90;47.40
3548;DHT22;1788;49.400;11.092;2022-07-05T04:34:52;18.90;47.40
3548;DHT22;1788;49.400;11.092;2022-07-05T04:37:19;18.90;47.50
3548;DHT22;1788;49.400;11.092;2022-07-05T04:39:46;19.00;47.60
3548;DHT22;1788;49.400;11.092;2022-07-05T04:42:12;19.00;47.70
3548;DHT22;1788;49.400;11.092;2022-07-05T04:44:39;19.00;47.80
3548;DHT22;1788;49.400;11.092;2022-07-05T04:47:06;19.10;47.90
3548;DHT22;1788;49.400;11.092;2022-07-05T04:49:32;19.10;47.90
3548;DHT22;1788;49.400;11.092;2022-07-05T04:51:59;19.20;48.00
3548;DHT22;1788;49.400;11.092;2022-07-05T04:54:26;19.20;48.00
3548;DHT22;1788;49.400;11.092;2022-07-05T04:56:52;19.30;48.20
3548;DHT22;1788;49.400;11.092;2022-07-05T04:59:19;19.30;48.20
3548;DHT22;1788;49.400;11.092;2022-07-05T05:01:45;19.40;48.30
3548;DHT22;1788;49.400;11.092;2022-07-05T05:04:12;19.50;48.40
3548;DHT22;1788;49.400;11.092;2022-07-05T05:06:39;19.60;48.40
3548;DHT22;1788;49.400;11.092;2022-07-05T05:09:05;19.60;48.40
3548;DHT22;1788;49.400;11.092;2022-07-05T05:11:33;19.80;48.60
3548;DHT22;1788;49.400;11.092;2022-07-05T05:13:59;19.80;48.60
3548;DHT22;1788;49.400;11.092;2022-07-05T05:16:26;19.90;48.60
3548;DHT22;1788;49.400;11.092;2022-07-05T05:18:53;20.00;48.60
3548;DHT22;1788;49.400;11.092;2022-07-05T05:21:19;20.10;48.60
3548;DHT22;1788;49.400;11.092;2022-07-05T05:23:46;20.20;48.50
3548;DHT22;1788;49.400;11.092;2022-07-05T05:26:13;20.30;48.40
3548;DHT22;1788;49.400;11.092;2022-07-05T05:28:39;20.40;48.30
3548;DHT22;1788;49.400;11.092;2022-07-05T05:31:06;20.50;48.30
3548;DHT22;1788;49.400;11.092;2022-07-05T05:33:32;20.60;48.20
3548;DHT22;1788;49.400;11.092;2022-07-05T05:36:00;20.80;48.20
3548;DHT22;1788;49.400;11.092;2022-07-05T05:38:26;20.90;48.10
3548;DHT22;1788;49.400;11.092;2022-07-05T05:40:53;21.10;48.00
3548;DHT22;1788;49.400;11.092;2022-07-05T05:43:20;21.10;48.00
3548;DHT22;1788;49.400;11.092;2022-07-05T05:45:46;21.30;48.00
3548;DHT22;1788;49.400;11.092;2022-07-05T05:50:59;21.50;47.50
3548;DHT22;1788;49.400;11.092;2022-07-05T05:53:25;21.70;47.40
3548;DHT22;1788;49.400;11.092;2022-07-05T05:55:53;21.90;47.80
3548;DHT22;1788;49.400;11.092;2022-07-05T05:58:20;21.90;47.10
3548;DHT22;1788;49.400;11.092;2022-07-05T06:00:46;22.00;46.80
3548;DHT22;1788;49.400;11.092;2022-07-05T06:03:13;22.10;46.70
3548;DHT22;1788;49.400;11.092;2022-07-05T06:05:39;22.20;46.50
3548;DHT22;1788;49.400;11.092;2022-07-05T06:08:07;22.40;46.20
3548;DHT22;1788;49.400;11.092;2022-07-05T06:10:34;22.40;46.20
3548;DHT22;1788;49.400;11.092;2022-07-05T06:15:29;22.60;45.90
3548;DHT22;1788;49.400;11.092;2022-07-05T06:17:55;22.70;46.30
3548;DHT22;1788;49.400;11.092;2022-07-05T06:22:50;22.90;45.60
3548;DHT22;1788;49.400;11.092;2022-07-05T06:25:17;23.10;45.40
3548;DHT22;1788;49.400;11.092;2022-07-05T06:27:44;23.10;45.40
3548;DHT22;1788;49.400;11.092;2022-07-05T06:30:12;23.20;45.20
3548;DHT22;1788;49.400;11.092;2022-07-05T06:32:38;23.40;45.00
3548;DHT22;1788;49.400;11.092;2022-07-05T06:35:04;23.30;44.90
3548;DHT22;1788;49.400;11.092;2022-07-05T06:39:58;23.60;44.90
3548;DHT22;1788;49.400;11.092;2022-07-05T06:42:26;23.70;44.80
3548;DHT22;1788;49.400;11.092;2022-07-05T06:44:52;23.90;44.70
3548;DHT22;1788;49.400;11.092;2022-07-05T06:47:19;24.00;44.50
3548;DHT22;1788;49.400;11.092;2022-07-05T06:49:47;24.30;44.10
3548;DHT22;1788;49.400;11.092;2022-07-05T06:52:13;24.30;44.10
3548;DHT22;1788;49.400;11.092;2022-07-05T06:54:40;24.40;43.80
3548;DHT22;1788;49.400;11.092;2022-07-05T06:57:06;24.50;43.60
3548;DHT22;1788;49.400;11.092;2022-07-05T06:59:33;24.60;43.40
3548;DHT22;1788;49.400;11.092;2022-07-05T07:02:00;24.70;43.20
3548;DHT22;1788;49.400;11.092;2022-07-05T07:06:54;24.90;43.10
3548;DHT22;1788;49.400;11.092;2022-07-05T07:09:20;25.10;43.00
3548;DHT22;1788;49.400;11.092;2022-07-05T07:11:47;25.20;42.80
3548;DHT22;1788;49.400;11.092;2022-07-05T07:14:14;25.30;42.60
3548;DHT22;1788;49.400;11.092;2022-07-05T07:16:40;25.40;42.40
3548;DHT22;1788;49.400;11.092;2022-07-05T07:19:07;25.50;42.30
3548;DHT22;1788;49.400;11.092;2022-07-05T07:24:00;25.70;41.90
3548;DHT22;1788;49.400;11.092;2022-07-05T07:26:27;25.80;41.80
3548;DHT22;1788;49.400;11.092;2022-07-05T07:28:53;25.90;41.60
3548;DHT22;1788;49.400;11.092;2022-07-05T07:31:20;26.10;41.40
3548;DHT22;1788;49.400;11.092;2022-07-05T07:33:46;26.10;41.10
3548;DHT22;1788;49.400;11.092;2022-07-05T07:36:14;26.40;41.10
3548;DHT22;1788;49.400;11.092;2022-07-05T07:38:41;26.30;41.00
3548;DHT22;1788;49.400;11.092;2022-07-05T07:43:34;26.60;40.60
3548;DHT22;1788;49.400;11.092;2022-07-05T07:46:02;26.80;40.20
3548;DHT22;1788;49.400;11.092;2022-07-05T07:48:28;26.80;40.10
3548;DHT22;1788;49.400;11.092;2022-07-05T07:50:55;26.90;39.80
3548;DHT22;1788;49.400;11.092;2022-07-05T07:53:22;27.00;39.70
3548;DHT22;1788;49.400;11.092;2022-07-05T07:55:48;27.00;39.50
3548;DHT22;1788;49.400;11.092;2022-07-05T07:58:15;27.10;39.40
3548;DHT22;1788;49.400;11.092;2022-07-05T08:00:42;27.30;38.90
3548;DHT22;1788;49.400;11.092;2022-07-05T08:03:09;27.30;38.80
3548;DHT22;1788;49.400;11.092;2022-07-05T08:05:35;27.40;38.50
3548;DHT22;1788;49.400;11.092;2022-07-05T08:08:02;27.50;38.20
3548;DHT22;1788;49.400;11.092;2022-07-05T08:10:29;27.60;38.00
3548;DHT22;1788;49.400;11.092;2022-07-05T08:12:55;27.70;37.80
3548;DHT22;1788;49.400;11.092;2022-07-05T08:15:22;27.70;37.60
3548;DHT22;1788;49.400;11.092;2022-07-05T08:17:49;27.80;37.50
3548;DHT22;1788;49.400;11.092;2022-07-05T08:20:15;27.90;37.40
3548;DHT22;1788;49.400;11.092;2022-07-05T08:22:42;28.00;37.10
3548;DHT22;1788;49.400;11.092;2022-07-05T08:25:09;28.10;36.40
3548;DHT22;1788;49.400;11.092;2022-07-05T08:27:36;28.10;36.30
3548;DHT22;1788;49.400;11.092;2022-07-05T08:30:02;28.20;36.00
3548;DHT22;1788;49.400;11.092;2022-07-05T08:32:29;28.30;35.80
3548;DHT22;1788;49.400;11.092;2022-07-05T08:34:56;28.40;35.50
3548;DHT22;1788;49.400;11.092;2022-07-05T08:37:23;28.60;34.80
3548;DHT22;1788;49.400;11.092;2022-07-05T08:39:50;28.60;34.80
3548;DHT22;1788;49.400;11.092;2022-07-05T08:42:17;28.80;34.30
3548;DHT22;1788;49.400;11.092;2022-07-05T08:44:44;28.80;34.30
3548;DHT22;1788;49.400;11.092;2022-07-05T08:47:11;29.00;33.70
3548;DHT22;1788;49.400;11.092;2022-07-05T08:49:38;28.90;33.60
3548;DHT22;1788;49.400;11.092;2022-07-05T08:52:04;29.00;33.50
3548;DHT22;1788;49.400;11.092;2022-07-05T08:54:31;29.10;33.30
3548;DHT22;1788;49.400;11.092;2022-07-05T08:56:57;29.10;33.20
3548;DHT22;1788;49.400;11.092;2022-07-05T08:59:24;29.20;33.20
3548;DHT22;1788;49.400;11.092;2022-07-05T09:01:51;29.20;33.10
3548;DHT22;1788;49.400;11.092;2022-07-05T09:06:45;29.50;32.90
3548;DHT22;1788;49.400;11.092;2022-07-05T09:09:11;29.50;32.70
3548;DHT22;1788;49.400;11.092;2022-07-05T09:11:40;29.50;32.50
3548;DHT22;1788;49.400;11.092;2022-07-05T09:14:06;29.50;32.40
3548;DHT22;1788;49.400;11.092;2022-07-05T09:16:33;29.50;32.50
3548;DHT22;1788;49.400;11.092;2022-07-05T09:21:27;29.40;32.30
3548;DHT22;1788;49.400;11.092;2022-07-05T09:36:10;29.80;31.80
3548;DHT22;1788;49.400;11.092;2022-07-05T09:38:37;29.80;31.50
3548;DHT22;1788;49.400;11.092;2022-07-05T09:41:04;29.90;31.50
3548;DHT22;1788;49.400;11.092;2022-07-05T09:43:32;30.30;31.40
3548;DHT22;1788;49.400;11.092;2022-07-05T09:45:59;30.30;31.40
3548;DHT22;1788;49.400;11.092;2022-07-05T09:48:26;30.50;31.00
3548;DHT22;1788;49.400;11.092;2022-07-05T09:50:52;30.50;31.00
3548;DHT22;1788;49.400;11.092;2022-07-05T09:53:19;30.50;30.80
3548;DHT22;1788;49.400;11.092;2022-07-05T09:58:13;30.50;30.40
3548;DHT22;1788;49.400;11.092;2022-07-05T10:00:40;30.50;30.40
3548;DHT22;1788;49.400;11.092;2022-07-05T10:03:07;30.50;30.40
3548;DHT22;1788;49.400;11.092;2022-07-05T10:05:34;30.70;30.50
3548;DHT22;1788;49.400;11.092;2022-07-05T10:08:02;30.60;30.30
3548;DHT22;1788;49.400;11.092;2022-07-05T10:10:29;30.60;30.30
3548;DHT22;1788;49.400;11.092;2022-07-05T10:12:56;30.70;30.30
3548;DHT22;1788;49.400;11.092;2022-07-05T10:17:50;30.80;30.00
3548;DHT22;1788;49.400;11.092;2022-07-05T10:22:42;30.70;30.00
3548;DHT22;1788;49.400;11.092;2022-07-05T10:25:10;30.50;30.10
3548;DHT22;1788;49.400;11.092;2022-07-05T10:27:37;30.50;30.00
3548;DHT22;1788;49.400;11.092;2022-07-05T10:30:04;30.10;30.00
3548;DHT22;1788;49.400;11.092;2022-07-05T10:32:30;30.10;30.00
3548;DHT22;1788;49.400;11.092;2022-07-05T10:34:58;30.30;30.10
3548;DHT22;1788;49.400;11.092;2022-07-05T10:37:25;30.30;30.00
3548;DHT22;1788;49.400;11.092;2022-07-05T10:39:51;30.40;30.00
3548;DHT22;1788;49.400;11.092;2022-07-05T10:42:17;30.50;29.90
3548;DHT22;1788;49.400;11.092;2022-07-05T10:44:44;30.70;29.70
3548;DHT22;1788;49.400;11.092;2022-07-05T10:47:11;31.00;29.50
3548;DHT22;1788;49.400;11.092;2022-07-05T10:49:38;30.90;29.20
3548;DHT22;1788;49.400;11.092;2022-07-05T10:52:05;30.90;29.20
3548;DHT22;1788;49.400;11.092;2022-07-05T10:54:32;30.90;29.20
3548;DHT22;1788;49.400;11.092;2022-07-05T10:59:26;31.10;28.90
3548;DHT22;1788;49.400;11.092;2022-07-05T11:01:52;31.20;28.70
3548;DHT22;1788;49.400;11.092;2022-07-05T11:04:21;31.30;28.50
3548;DHT22;1788;49.400;11.092;2022-07-05T11:06:45;31.40;28.20
3548;DHT22;1788;49.400;11.092;2022-07-05T11:09:14;31.50;28.10
3548;DHT22;1788;49.400;11.092;2022-07-05T11:11:40;31.40;28.30
3548;DHT22;1788;49.400;11.092;2022-07-05T11:16:33;31.30;28.60
3548;DHT22;1788;49.400;11.092;2022-07-05T11:21:26;31.10;28.70
3548;DHT22;1788;49.400;11.092;2022-07-05T11:23:53;31.20;28.80
3548;DHT22;1788;49.400;11.092;2022-07-05T11:26:20;31.30;28.70
3548;DHT22;1788;49.400;11.092;2022-07-05T11:28:47;31.30;28.60
3548;DHT22;1788;49.400;11.092;2022-07-05T11:33:41;31.20;28.50
3548;DHT22;1788;49.400;11.092;2022-07-05T11:38:35;31.30;28.50
3548;DHT22;1788;49.400;11.092;2022-07-05T11:43:28;31.50;28.20
3548;DHT22;1788;49.400;11.092;2022-07-05T11:45:56;31.60;28.10
3548;DHT22;1788;49.400;11.092;2022-07-05T11:48:21;31.80;28.00
3548;DHT22;1788;49.400;11.092;2022-07-05T11:50:49;31.90;27.70
3548;DHT22;1788;49.400;11.092;2022-07-05T11:53:24;31.70;27.50
3548;DHT22;1788;49.400;11.092;2022-07-05T11:55:42;31.60;27.40
3548;DHT22;1788;49.400;11.092;2022-07-05T11:58:08;31.40;27.80
3548;DHT22;1788;49.400;11.092;2022-07-05T12:00:36;31.00;27.60
3548;DHT22;1788;49.400;11.092;2022-07-05T12:05:30;31.00;27.80
3548;DHT22;1788;49.400;11.092;2022-07-05T12:07:56;31.00;27.90
3548;DHT22;1788;49.400;11.092;2022-07-05T12:10:22;31.10;27.90
3548;DHT22;1788;49.400;11.092;2022-07-05T12:12:50;31.30;28.00
3548;DHT22;1788;49.400;11.092;2022-07-05T12:15:17;31.30;28.00
3548;DHT22;1788;49.400;11.092;2022-07-05T12:17:44;31.50;27.70
3548;DHT22;1788;49.400;11.092;2022-07-05T12:20:12;31.50;27.70
3548;DHT22;1788;49.400;11.092;2022-07-05T12:22:39;31.30;27.70
3548;DHT22;1788;49.400;11.092;2022-07-05T12:25:06;31.30;27.60
3548;DHT22;1788;49.400;11.092;2022-07-05T12:27:34;31.20;27.70
3548;DHT22;1788;49.400;11.092;2022-07-05T12:29:59;31.20;27.90
3548;DHT22;1788;49.400;11.092;2022-07-05T12:32:25;31.30;28.00
3548;DHT22;1788;49.400;11.092;2022-07-05T12:34:52;31.40;27.90
3548;DHT22;1788;49.400;11.092;2022-07-05T12:39:45;31.80;27.80
3548;DHT22;1788;49.400;11.092;2022-07-05T12:42:17;32.00;27.80
3548;DHT22;1788;49.400;11.092;2022-07-05T12:44:38;32.30;27.70
3548;DHT22;1788;49.400;11.092;2022-07-05T12:47:05;32.50;27.40
3548;DHT22;1788;49.400;11.092;2022-07-05T12:49:32;32.60;27.20
3548;DHT22;1788;49.400;11.092;2022-07-05T12:52:02;32.60;27.00
3548;DHT22;1788;49.400;11.092;2022-07-05T12:54:25;32.70;26.90
3548;DHT22;1788;49.400;11.092;2022-07-05T12:56:53;32.70;27.20
3548;DHT22;1788;49.400;11.092;2022-07-05T12:59:19;32.60;26.80
3548;DHT22;1788;49.400;11.092;2022-07-05T13:01:45;32.50;26.70
3548;DHT22;1788;49.400;11.092;2022-07-05T13:09:05;31.90;26.60
3548;DHT22;1788;49.400;11.092;2022-07-05T13:11:32;31.60;26.70
3548;DHT22;1788;49.400;11.092;2022-07-05T13:13:59;31.40;27.00
3548;DHT22;1788;49.400;11.092;2022-07-05T13:16:25;31.40;27.10
3548;DHT22;1788;49.400;11.092;2022-07-05T13:18:52;31.50;27.10
3548;DHT22;1788;49.400;11.092;2022-07-05T13:21:18;31.70;27.10
3548;DHT22;1788;49.400;11.092;2022-07-05T13:23:45;31.70;26.80
3548;DHT22;1788;49.400;11.092;2022-07-05T13:26:12;31.80;26.80
3548;DHT22;1788;49.400;11.092;2022-07-05T13:28:38;31.80;26.60
3548;DHT22;1788;49.400;11.092;2022-07-05T13:31:05;31.80;26.60
3548;DHT22;1788;49.400;11.092;2022-07-05T13:33:31;31.90;26.70
3548;DHT22;1788;49.400;11.092;2022-07-05T13:35:59;31.90;26.50
3548;DHT22;1788;49.400;11.092;2022-07-05T13:38:25;32.00;26.50
3548;DHT22;1788;49.400;11.092;2022-07-05T13:40:53;32.10;26.50
3548;DHT22;1788;49.400;11.092;2022-07-05T13:43:19;32.00;26.50
3548;DHT22;1788;49.400;11.092;2022-07-05T13:45:46;32.20;26.50
3548;DHT22;1788;49.400;11.092;2022-07-05T13:48:13;32.30;26.50
3548;DHT22;1788;49.400;11.092;2022-07-05T13:50:39;32.50;26.50
3548;DHT22;1788;49.400;11.092;2022-07-05T13:53:06;32.70;26.40
3548;DHT22;1788;49.400;11.092;2022-07-05T13:55:32;32.80;26.30
3548;DHT22;1788;49.400;11.092;2022-07-05T13:57:59;32.90;26.00
3548;DHT22;1788;49.400;11.092;2022-07-05T14:00:26;32.70;25.70
3548;DHT22;1788;49.400;11.092;2022-07-05T14:02:54;32.30;25.60
3548;DHT22;1788;49.400;11.092;2022-07-05T14:05:21;31.90;25.60
3548;DHT22;1788;49.400;11.092;2022-07-05T14:10:15;31.30;26.00
3548;DHT22;1788;49.400;11.092;2022-07-05T14:12:42;31.30;26.00
3548;DHT22;1788;49.400;11.092;2022-07-05T14:15:09;31.10;26.20
3548;DHT22;1788;49.400;11.092;2022-07-05T14:17:36;31.00;26.10
3548;DHT22;1788;49.400;11.092;2022-07-05T14:20:03;31.00;26.10
3548;DHT22;1788;49.400;11.092;2022-07-05T14:22:29;31.10;26.30
3548;DHT22;1788;49.400;11.092;2022-07-05T14:24:56;31.30;26.30
3548;DHT22;1788;49.400;11.092;2022-07-05T14:27:22;31.50;26.20
3548;DHT22;1788;49.400;11.092;2022-07-05T14:29:50;31.70;25.80
3548;DHT22;1788;49.400;11.092;2022-07-05T14:32:16;31.70;25.80
3548;DHT22;1788;49.400;11.092;2022-07-05T14:34:43;31.80;25.70
3548;DHT22;1788;49.400;11.092;2022-07-05T14:37:10;31.80;25.60
3548;DHT22;1788;49.400;11.092;2022-07-05T14:39:38;31.50;25.20
3548;DHT22;1788;49.400;11.092;2022-07-05T14:42:04;31.50;25.60
3548;DHT22;1788;49.400;11.092;2022-07-05T14:44:31;31.40;25.70
3548;DHT22;1788;49.400;11.092;2022-07-05T14:46:58;31.40;25.80
3548;DHT22;1788;49.400;11.092;2022-07-05T14:49:24;31.40;25.70
3548;DHT22;1788;49.400;11.092;2022-07-05T14:51:52;31.60;25.80
3548;DHT22;1788;49.400;11.092;2022-07-05T14:54:18;31.50;25.80
3548;DHT22;1788;49.400;11.092;2022-07-05T14:56:45;31.70;26.30
3548;DHT22;1788;49.400;11.092;2022-07-05T14:59:11;31.70;25.70
3548;DHT22;1788;49.400;11.092;2022-07-05T15:01:38;31.70;25.70
3548;DHT22;1788;49.400;11.092;2022-07-05T15:04:06;31.70;25.50
3548;DHT22;1788;49.400;11.092;2022-07-05T15:06:33;31.70;25.50
3548;DHT22;1788;49.400;11.092;2022-07-05T15:09:00;31.40;25.60
3548;DHT22;1788;49.400;11.092;2022-07-05T15:11:27;31.40;25.60
3548;DHT22;1788;49.400;11.092;2022-07-05T15:13:54;31.60;26.30
3548;DHT22;1788;49.400;11.092;2022-07-05T15:16:21;31.60;25.90
3548;DHT22;1788;49.400;11.092;2022-07-05T15:18:48;31.70;25.80
3548;DHT22;1788;49.400;11.092;2022-07-05T15:21:14;31.80;25.80
3548;DHT22;1788;49.400;11.092;2022-07-05T15:23:41;31.90;25.90
3548;DHT22;1788;49.400;11.092;2022-07-05T15:26:09;32.10;25.70
3548;DHT22;1788;49.400;11.092;2022-07-05T15:28:36;32.10;25.70
3548;DHT22;1788;49.400;11.092;2022-07-05T15:31:04;31.90;25.50
3548;DHT22;1788;49.400;11.092;2022-07-05T15:33:30;31.90;25.50
3548;DHT22;1788;49.400;11.092;2022-07-05T15:35:57;31.80;25.50
3548;DHT22;1788;49.400;11.092;2022-07-05T15:38:25;31.50;25.60
3548;DHT22;1788;49.400;11.092;2022-07-05T15:40:52;31.40;25.90
3548;DHT22;1788;49.400;11.092;2022-07-05T15:43:18;31.40;25.90
3548;DHT22;1788;49.400;11.092;2022-07-05T15:45:46;31.10;26.00
3548;DHT22;1788;49.400;11.092;2022-07-05T15:48:12;31.10;26.00
3548;DHT22;1788;49.400;11.092;2022-07-05T15:50:39;31.00;26.10
3548;DHT22;1788;49.400;11.092;2022-07-05T15:53:06;31.00;26.10
3548;DHT22;1788;49.400;11.092;2022-07-05T15:55:33;31.00;26.20
3548;DHT22;1788;49.400;11.092;2022-07-05T15:58:01;31.00;26.20
3548;DHT22;1788;49.400;11.092;2022-07-05T16:00:28;31.10;26.20
3548;DHT22;1788;49.400;11.092;2022-07-05T16:02:55;31.10;26.20
3548;DHT22;1788;49.400;11.092;2022-07-05T16:05:22;31.00;26.10
3548;DHT22;1788;49.400;11.092;2022-07-05T16:07:48;30.80;26.00
3548;DHT22;1788;49.400;11.092;2022-07-05T16:10:15;30.70;26.20
3548;DHT22;1788;49.400;11.092;2022-07-05T16:12:41;30.60;26.30
3548;DHT22;1788;49.400;11.092;2022-07-05T16:15:09;30.40;26.40
3548;DHT22;1788;49.400;11.092;2022-07-05T16:17:36;30.30;26.40
3548;DHT22;1788;49.400;11.092;2022-07-05T16:20:04;30.20;26.50
3548;DHT22;1788;49.400;11.092;2022-07-05T16:22:31;30.20;26.50
3548;DHT22;1788;49.400;11.092;2022-07-05T16:24:58;30.30;26.50
3548;DHT22;1788;49.400;11.092;2022-07-05T16:27:25;30.20;26.50
3548;DHT22;1788;49.400;11.092;2022-07-05T16:29:52;30.40;26.80
3548;DHT22;1788;49.400;11.092;2022-07-05T16:32:19;30.30;26.30
3548;DHT22;1788;49.400;11.092;2022-07-05T16:34:45;30.40;26.40
3548;DHT22;1788;49.400;11.092;2022-07-05T16:37:12;30.40;26.30
3548;DHT22;1788;49.400;11.092;2022-07-05T16:39:39;30.40;26.40
3548;DHT22;1788;49.400;11.092;2022-07-05T16:42:06;30.30;26.60
3548;DHT22;1788;49.400;11.092;2022-07-05T16:44:33;30.30;26.60
3548;DHT22;1788;49.400;11.092;2022-07-05T16:47:00;30.20;26.60
3548;DHT22;1788;49.400;11.092;2022-07-05T16:49:26;30.10;26.60
3548;DHT22;1788;49.400;11.092;2022-07-05T16:51:53;30.00;26.60
3548;DHT22;1788;49.400;11.092;2022-07-05T16:54:19;30.00;26.70
3548;DHT22;1788;49.400;11.092;2022-07-05T16:56:46;29.90;26.70
3548;DHT22;1788;49.400;11.092;2022-07-05T16:59:13;29.80;26.60